Winchester, California
Current Conditions -  °F | °C
As of 7:15 AM on Sunday 21 Dec 2014 (Local Time) from KF70 Reporting Station
Overcast Overcast  
Wind Chill: 43°   Ceiling: 700
Heat Index: 43°   Visibility: 1.2mi
Dew Point: 41°   Wind: 3mph
Humidity: 93%   Direction: 10°N
Pressure: 30.15"   Gusts: NA
Location:  33.71°N, 117.09°W
Report Text: KF70 211515Z AUTO 01003KT 1 1/4SM VV007 06/05 A3015 RMK AO1
Loading
Personal Weather Stations






























Interactive Weather Map New forecast layout! Learn more

10-Day Weather Forecast

Advertisements
Track Severe Weather on mobile